Wetterdaten: aktuell Mittwoch, 02.09.2026 05:00
Datum Zeit Temp. A. Feuchte A. Luftdruck Regen Wind Richtung Richtung Sonnenschein Solar Taupunkt Windchill Windböen
02.09.2026 05:00 12,6 °C 88 % 1020,4 hPa 0,0 l/m² 0,0 km/h N-NO 22 ° 0 min 0 W/m² 10,7 °C 12,6 °C 1,6 km/h
02.09.2026 04:55 12,7 °C 88 % 1020,4 hPa 0,0 l/m² 0,0 km/h N-NO 22 ° 0 min 0 W/m² 10,8 °C 12,7 °C 1,6 km/h
02.09.2026 04:50 12,7 °C 88 % 1020,4 hPa 0,0 l/m² 0,0 km/h N-NO 22 ° 0 min 0 W/m² 10,8 °C 12,7 °C 1,6 km/h
02.09.2026 04:45 12,8 °C 87 % 1020,4 hPa 0,0 l/m² 0,0 km/h N-NO 22 ° 0 min 0 W/m² 10,7 °C 12,8 °C 3,2 km/h
02.09.2026 04:40 12,8 °C 87 % 1020,5 hPa 0,0 l/m² 0,0 km/h N-NO 22 ° 0 min 0 W/m² 10,7 °C 12,8 °C 1,6 km/h
02.09.2026 04:35 12,9 °C 87 % 1020,4 hPa 0,0 l/m² 0,0 km/h N-NO 22 ° 0 min 0 W/m² 10,8 °C 12,9 °C 3,2 km/h
02.09.2026 04:30 12,9 °C 87 % 1020,5 hPa 0,0 l/m² 0,0 km/h N-NO 22 ° 0 min 0 W/m² 10,8 °C 12,9 °C 1,6 km/h
02.09.2026 04:25 13,0 °C 87 % 1020,5 hPa 0,0 l/m² 0,0 km/h N-NO 22 ° 0 min 0 W/m² 10,9 °C 13,0 °C 3,2 km/h
02.09.2026 04:20 13,1 °C 87 % 1020,5 hPa 0,0 l/m² 1,6 km/h N-NO 22 ° 0 min 0 W/m² 11,0 °C 13,1 °C 4,8 km/h
02.09.2026 04:15 13,2 °C 86 % 1020,4 hPa 0,0 l/m² 0,0 km/h N-NO 22 ° 0 min 0 W/m² 10,9 °C 13,2 °C 3,2 km/h
02.09.2026 04:10 13,3 °C 86 % 1020,5 hPa 0,0 l/m² 0,0 km/h N-NO 22 ° 0 min 0 W/m² 11,0 °C 13,3 °C 3,2 km/h
02.09.2026 04:05 13,3 °C 86 % 1020,5 hPa 0,0 l/m² 0,0 km/h N-NO 22 ° 0 min 0 W/m² 11,0 °C 13,3 °C 4,8 km/h
02.09.2026 04:00 13,4 °C 86 % 1020,6 hPa 0,0 l/m² 0,0 km/h N-NO 22 ° 0 min 0 W/m² 11,1 °C 13,4 °C 3,2 km/h
02.09.2026 03:55 13,5 °C 85 % 1020,6 hPa 0,0 l/m² 0,0 km/h N-NO 22 ° 0 min 0 W/m² 11,0 °C 13,5 °C 3,2 km/h
02.09.2026 03:50 13,6 °C 86 % 1020,6 hPa 0,0 l/m² 0,0 km/h N-NO 22 ° 0 min 0 W/m² 11,3 °C 13,6 °C 1,6 km/h
02.09.2026 03:45 13,7 °C 85 % 1020,5 hPa 0,0 l/m² 0,0 km/h N-NO 22 ° 0 min 0 W/m² 11,2 °C 13,7 °C 1,6 km/h
02.09.2026 03:40 13,8 °C 85 % 1020,6 hPa 0,0 l/m² 0,0 km/h N-NO 22 ° 0 min 0 W/m² 11,3 °C 13,8 °C 3,2 km/h
02.09.2026 03:35 13,8 °C 85 % 1020,5 hPa 0,0 l/m² 0,0 km/h N-NO 22 ° 0 min 0 W/m² 11,3 °C 13,8 °C 4,8 km/h
02.09.2026 03:30 13,9 °C 85 % 1020,4 hPa 0,0 l/m² 0,0 km/h N-NO 22 ° 0 min 0 W/m² 11,4 °C 13,9 °C 4,8 km/h
02.09.2026 03:25 13,9 °C 85 % 1020,5 hPa 0,0 l/m² 1,6 km/h N-NO 22 ° 0 min 0 W/m² 11,4 °C 13,9 °C 3,2 km/h
02.09.2026 03:20 14,1 °C 84 % 1020,4 hPa 0,0 l/m² 0,0 km/h N-NO 22 ° 0 min 0 W/m² 11,4 °C 14,1 °C 4,8 km/h
02.09.2026 03:15 14,2 °C 84 % 1020,4 hPa 0,0 l/m² 1,6 km/h N-NO 22 ° 0 min 0 W/m² 11,5 °C 14,2 °C 4,8 km/h
02.09.2026 03:10 14,2 °C 84 % 1020,4 hPa 0,0 l/m² 0,0 km/h N-NO 22 ° 0 min 0 W/m² 11,5 °C 14,2 °C 3,2 km/h
02.09.2026 03:05 14,3 °C 84 % 1020,4 hPa 0,0 l/m² 1,6 km/h N-NO 22 ° 0 min 0 W/m² 11,6 °C 14,3 °C 4,8 km/h
02.09.2026 03:00 14,4 °C 84 % 1020,4 hPa 0,0 l/m² 1,6 km/h N-NO 22 ° 0 min 0 W/m² 11,7 °C 14,4 °C 4,8 km/h
02.09.2026 02:55 14,4 °C 84 % 1020,4 hPa 0,0 l/m² 3,2 km/h N-NO 22 ° 0 min 0 W/m² 11,7 °C 14,4 °C 4,8 km/h
02.09.2026 02:50 14,4 °C 84 % 1020,4 hPa 0,0 l/m² 1,6 km/h N-NO 22 ° 0 min 0 W/m² 11,7 °C 14,4 °C 4,8 km/h
02.09.2026 02:45 14,5 °C 84 % 1020,3 hPa 0,0 l/m² 1,6 km/h N-NO 22 ° 0 min 0 W/m² 11,8 °C 14,5 °C 3,2 km/h
02.09.2026 02:40 14,6 °C 84 % 1020,4 hPa 0,0 l/m² 3,2 km/h N-NO 22 ° 0 min 0 W/m² 11,9 °C 14,6 °C 4,8 km/h
02.09.2026 02:35 14,6 °C 84 % 1020,3 hPa 0,0 l/m² 3,2 km/h N-NO 22 ° 0 min 0 W/m² 11,9 °C 14,6 °C 4,8 km/h
02.09.2026 02:30 14,7 °C 84 % 1020,2 hPa 0,0 l/m² 3,2 km/h N-NO 22 ° 0 min 0 W/m² 12,0 °C 14,7 °C 4,8 km/h
02.09.2026 02:25 14,7 °C 84 % 1020,3 hPa 0,0 l/m² 3,2 km/h N-NO 22 ° 0 min 0 W/m² 12,0 °C 14,7 °C 4,8 km/h
02.09.2026 02:20 14,8 °C 84 % 1020,3 hPa 0,0 l/m² 3,2 km/h N-NO 22 ° 0 min 0 W/m² 12,1 °C 14,8 °C 4,8 km/h
02.09.2026 02:15 14,8 °C 84 % 1020,3 hPa 0,0 l/m² 1,6 km/h N-NO 22 ° 0 min 0 W/m² 12,1 °C 14,8 °C 4,8 km/h
02.09.2026 02:10 14,8 °C 84 % 1020,3 hPa 0,0 l/m² 3,2 km/h N-NO 22 ° 0 min 0 W/m² 12,1 °C 14,8 °C 6,4 km/h
02.09.2026 02:05 14,8 °C 84 % 1020,3 hPa 0,0 l/m² 3,2 km/h N-NO 22 ° 0 min 0 W/m² 12,1 °C 14,8 °C 6,4 km/h
02.09.2026 02:00 14,8 °C 84 % 1020,3 hPa 0,0 l/m² 3,2 km/h N-NO 22 ° 0 min 0 W/m² 12,1 °C 14,8 °C 4,8 km/h
02.09.2026 01:55 14,8 °C 84 % 1020,2 hPa 0,0 l/m² 3,2 km/h N-NO 22 ° 0 min 0 W/m² 12,1 °C 14,8 °C 4,8 km/h
02.09.2026 01:50 14,9 °C 84 % 1020,2 hPa 0,0 l/m² 1,6 km/h N-NO 22 ° 0 min 0 W/m² 12,2 °C 14,9 °C 4,8 km/h
02.09.2026 01:45 15,0 °C 83 % 1020,2 hPa 0,0 l/m² 1,6 km/h N-NO 22 ° 0 min 0 W/m² 12,1 °C 15,0 °C 3,2 km/h
02.09.2026 01:40 15,3 °C 83 % 1020,3 hPa 0,0 l/m² 1,6 km/h N-NO 22 ° 0 min 0 W/m² 12,4 °C 15,3 °C 4,8 km/h
02.09.2026 01:35 15,6 °C 82 % 1020,3 hPa 0,0 l/m² 1,6 km/h N-NO 22 ° 0 min 0 W/m² 12,5 °C 15,6 °C 3,2 km/h
02.09.2026 01:30 15,6 °C 81 % 1020,3 hPa 0,0 l/m² 1,6 km/h N-NO 22 ° 0 min 0 W/m² 12,3 °C 15,6 °C 3,2 km/h
02.09.2026 01:25 15,6 °C 81 % 1020,3 hPa 0,0 l/m² 3,2 km/h N-NO 22 ° 0 min 0 W/m² 12,3 °C 15,6 °C 4,8 km/h
02.09.2026 01:20 15,6 °C 81 % 1020,3 hPa 0,0 l/m² 1,6 km/h N-NO 22 ° 0 min 0 W/m² 12,3 °C 15,6 °C 4,8 km/h
02.09.2026 01:15 15,6 °C 81 % 1020,4 hPa 0,0 l/m² 1,6 km/h N-NO 22 ° 0 min 0 W/m² 12,3 °C 15,6 °C 4,8 km/h
02.09.2026 01:10 15,6 °C 81 % 1020,4 hPa 0,0 l/m² 1,6 km/h N-NO 22 ° 0 min 0 W/m² 12,3 °C 15,6 °C 4,8 km/h
02.09.2026 01:05 15,8 °C 81 % 1020,4 hPa 0,0 l/m² 1,6 km/h N-NO 22 ° 0 min 0 W/m² 12,5 °C 15,8 °C 3,2 km/h
02.09.2026 01:00 15,9 °C 80 % 1020,3 hPa 0,0 l/m² 3,2 km/h N-NO 22 ° 0 min 0 W/m² 12,5 °C 15,9 °C 4,8 km/h
02.09.2026 00:55 16,0 °C 80 % 1020,3 hPa 0,0 l/m² 1,6 km/h N 360 ° 0 min 0 W/m² 12,5 °C 16,0 °C 4,8 km/h
02.09.2026 00:50 15,9 °C 80 % 1020,4 hPa 0,0 l/m² 1,6 km/h N 360 ° 0 min 0 W/m² 12,5 °C 15,9 °C 4,8 km/h
02.09.2026 00:45 15,9 °C 80 % 1020,5 hPa 0,0 l/m² 3,2 km/h N 360 ° 0 min 0 W/m² 12,5 °C 15,9 °C 4,8 km/h
02.09.2026 00:40 16,0 °C 80 % 1020,5 hPa 0,0 l/m² 3,2 km/h N 360 ° 0 min 0 W/m² 12,5 °C 16,0 °C 4,8 km/h
02.09.2026 00:35 16,0 °C 80 % 1020,5 hPa 0,0 l/m² 3,2 km/h N 360 ° 0 min 0 W/m² 12,5 °C 16,0 °C 4,8 km/h
02.09.2026 00:30 16,0 °C 81 % 1020,5 hPa 0,0 l/m² 3,2 km/h N 360 ° 0 min 0 W/m² 12,7 °C 16,0 °C 4,8 km/h
02.09.2026 00:25 16,1 °C 81 % 1020,5 hPa 0,0 l/m² 1,6 km/h N 360 ° 0 min 0 W/m² 12,8 °C 16,1 °C 3,2 km/h
02.09.2026 00:20 16,1 °C 80 % 1020,5 hPa 0,0 l/m² 1,6 km/h N 360 ° 0 min 0 W/m² 12,6 °C 16,1 °C 4,8 km/h
02.09.2026 00:15 16,1 °C 80 % 1020,5 hPa 0,0 l/m² 1,6 km/h N 360 ° 0 min 0 W/m² 12,6 °C 16,1 °C 4,8 km/h
02.09.2026 00:10 16,1 °C 80 % 1020,6 hPa 0,0 l/m² 1,6 km/h N 360 ° 0 min 0 W/m² 12,6 °C 16,1 °C 3,2 km/h
02.09.2026 00:05 16,1 °C 80 % 1020,6 hPa 0,0 l/m² 1,6 km/h N 360 ° 0 min 0 W/m² 12,6 °C 16,1 °C 3,2 km/h
02.09.2026 00:00 16,1 °C 79 % 1020,6 hPa 0,0 l/m² 1,6 km/h N 360 ° 0 min 0 W/m² 12,5 °C 16,1 °C 3,2 km/h
01.09.2026 23:55 16,1 °C 79 % 1020,6 hPa 0,0 l/m² 1,6 km/h N 360 ° 0 min 0 W/m² 12,5 °C 16,1 °C 4,8 km/h
01.09.2026 23:50 16,1 °C 79 % 1020,6 hPa 0,0 l/m² 3,2 km/h N 360 ° 0 min 0 W/m² 12,5 °C 16,1 °C 4,8 km/h
01.09.2026 23:45 15,9 °C 80 % 1020,6 hPa 0,0 l/m² 3,2 km/h N 360 ° 0 min 0 W/m² 12,5 °C 15,9 °C 4,8 km/h
01.09.2026 23:40 16,0 °C 80 % 1020,7 hPa 0,0 l/m² 3,2 km/h N 360 ° 0 min 0 W/m² 12,5 °C 16,0 °C 4,8 km/h
01.09.2026 23:35 16,0 °C 80 % 1020,6 hPa 0,0 l/m² 3,2 km/h N 360 ° 0 min 0 W/m² 12,5 °C 16,0 °C 3,2 km/h
01.09.2026 23:30 15,9 °C 80 % 1020,6 hPa 0,0 l/m² 1,6 km/h N 360 ° 0 min 0 W/m² 12,5 °C 15,9 °C 3,2 km/h
01.09.2026 23:25 16,0 °C 80 % 1020,6 hPa 0,0 l/m² 1,6 km/h N 360 ° 0 min 0 W/m² 12,5 °C 16,0 °C 3,2 km/h
01.09.2026 23:20 16,1 °C 79 % 1020,6 hPa 0,0 l/m² 1,6 km/h N 360 ° 0 min 0 W/m² 12,5 °C 16,1 °C 3,2 km/h
01.09.2026 23:15 16,2 °C 79 % 1020,5 hPa 0,0 l/m² 1,6 km/h N 360 ° 0 min 0 W/m² 12,6 °C 16,2 °C 3,2 km/h
01.09.2026 23:10 16,2 °C 78 % 1020,6 hPa 0,0 l/m² 3,2 km/h N 360 ° 0 min 0 W/m² 12,4 °C 16,2 °C 6,4 km/h
01.09.2026 23:05 16,2 °C 78 % 1020,6 hPa 0,0 l/m² 3,2 km/h N 360 ° 0 min 0 W/m² 12,4 °C 16,2 °C 4,8 km/h
01.09.2026 23:00 16,3 °C 78 % 1020,5 hPa 0,0 l/m² 3,2 km/h N 360 ° 0 min 0 W/m² 12,5 °C 16,3 °C 4,8 km/h
01.09.2026 22:55 16,4 °C 77 % 1020,6 hPa 0,0 l/m² 3,2 km/h N 360 ° 0 min 0 W/m² 12,4 °C 16,4 °C 4,8 km/h
01.09.2026 22:50 16,5 °C 78 % 1020,5 hPa 0,0 l/m² 3,2 km/h N 360 ° 0 min 0 W/m² 12,6 °C 16,5 °C 4,8 km/h
01.09.2026 22:45 16,5 °C 77 % 1020,5 hPa 0,0 l/m² 3,2 km/h N 360 ° 0 min 0 W/m² 12,5 °C 16,5 °C 4,8 km/h
01.09.2026 22:40 16,5 °C 77 % 1020,4 hPa 0,0 l/m² 3,2 km/h N 360 ° 0 min 0 W/m² 12,5 °C 16,5 °C 4,8 km/h
01.09.2026 22:35 16,4 °C 77 % 1020,5 hPa 0,0 l/m² 3,2 km/h N 360 ° 0 min 0 W/m² 12,4 °C 16,4 °C 4,8 km/h
01.09.2026 22:30 16,4 °C 77 % 1020,3 hPa 0,0 l/m² 3,2 km/h N 360 ° 0 min 0 W/m² 12,4 °C 16,4 °C 4,8 km/h
01.09.2026 22:25 16,4 °C 77 % 1020,3 hPa 0,0 l/m² 3,2 km/h N 360 ° 0 min 0 W/m² 12,4 °C 16,4 °C 4,8 km/h
01.09.2026 22:20 16,4 °C 77 % 1020,3 hPa 0,0 l/m² 3,2 km/h N 360 ° 0 min 0 W/m² 12,4 °C 16,4 °C 4,8 km/h
01.09.2026 22:15 16,4 °C 78 % 1020,3 hPa 0,0 l/m² 3,2 km/h N 360 ° 0 min 0 W/m² 12,6 °C 16,4 °C 4,8 km/h
01.09.2026 22:10 16,4 °C 77 % 1020,3 hPa 0,0 l/m² 3,2 km/h N 360 ° 0 min 0 W/m² 12,4 °C 16,4 °C 3,2 km/h
01.09.2026 22:05 16,3 °C 78 % 1020,3 hPa 0,0 l/m² 3,2 km/h N 360 ° 0 min 0 W/m² 12,5 °C 16,3 °C 6,4 km/h
01.09.2026 22:00 16,2 °C 78 % 1020,3 hPa 0,0 l/m² 3,2 km/h NW 315 ° 0 min 0 W/m² 12,4 °C 16,2 °C 4,8 km/h
01.09.2026 21:55 16,2 °C 78 % 1020,3 hPa 0,0 l/m² 1,6 km/h NW 315 ° 0 min 0 W/m² 12,4 °C 16,2 °C 4,8 km/h
01.09.2026 21:50 16,3 °C 78 % 1020,3 hPa 0,0 l/m² 1,6 km/h NW 315 ° 0 min 0 W/m² 12,5 °C 16,3 °C 3,2 km/h
01.09.2026 21:45 16,2 °C 79 % 1020,2 hPa 0,0 l/m² 1,6 km/h NW 315 ° 0 min 0 W/m² 12,6 °C 16,2 °C 3,2 km/h
01.09.2026 21:40 16,1 °C 79 % 1020,3 hPa 0,0 l/m² 1,6 km/h NW 315 ° 0 min 0 W/m² 12,5 °C 16,1 °C 3,2 km/h
01.09.2026 21:35 16,1 °C 79 % 1020,3 hPa 0,0 l/m² 1,6 km/h NW 315 ° 0 min 0 W/m² 12,5 °C 16,1 °C 3,2 km/h
01.09.2026 21:30 16,2 °C 79 % 1020,1 hPa 0,0 l/m² 3,2 km/h NW 315 ° 0 min 0 W/m² 12,6 °C 16,2 °C 6,4 km/h
01.09.2026 21:25 16,2 °C 79 % 1020,1 hPa 0,0 l/m² 1,6 km/h NW 315 ° 0 min 0 W/m² 12,6 °C 16,2 °C 4,8 km/h
01.09.2026 21:20 16,2 °C 79 % 1020,1 hPa 0,0 l/m² 3,2 km/h NW 315 ° 0 min 0 W/m² 12,6 °C 16,2 °C 4,8 km/h
01.09.2026 21:15 16,4 °C 78 % 1020,0 hPa 0,0 l/m² 3,2 km/h NW 315 ° 0 min 0 W/m² 12,6 °C 16,4 °C 4,8 km/h
01.09.2026 21:10 16,6 °C 77 % 1020,0 hPa 0,0 l/m² 3,2 km/h N-NW 337 ° 0 min 0 W/m² 12,5 °C 16,6 °C 4,8 km/h
01.09.2026 21:05 16,7 °C 77 % 1019,9 hPa 0,0 l/m² 1,6 km/h NW 315 ° 0 min 0 W/m² 12,6 °C 16,7 °C 4,8 km/h
01.09.2026 21:00 16,9 °C 77 % 1019,9 hPa 0,0 l/m² 3,2 km/h NW 315 ° 0 min 0 W/m² 12,8 °C 16,9 °C 4,8 km/h
01.09.2026 20:55 17,1 °C 76 % 1019,9 hPa 0,0 l/m² 3,2 km/h NW 315 ° 0 min 0 W/m² 12,8 °C 17,1 °C 4,8 km/h
01.09.2026 20:50 17,2 °C 75 % 1019,8 hPa 0,0 l/m² 3,2 km/h NW 315 ° 0 min 0 W/m² 12,7 °C 17,2 °C 4,8 km/h
01.09.2026 20:45 17,4 °C 74 % 1019,7 hPa 0,0 l/m² 1,6 km/h NW 315 ° 0 min 0 W/m² 12,7 °C 17,4 °C 3,2 km/h
01.09.2026 20:40 17,5 °C 74 % 1019,6 hPa 0,0 l/m² 1,6 km/h NW 315 ° 0 min 0 W/m² 12,8 °C 17,5 °C 4,8 km/h
01.09.2026 20:35 17,7 °C 73 % 1019,6 hPa 0,0 l/m² 3,2 km/h NW 315 ° 0 min 0 W/m² 12,8 °C 17,7 °C 4,8 km/h
01.09.2026 20:30 17,9 °C 72 % 1019,7 hPa 0,0 l/m² 3,2 km/h NW 315 ° 0 min 0 W/m² 12,8 °C 17,9 °C 4,8 km/h
01.09.2026 20:25 18,1 °C 71 % 1019,5 hPa 0,0 l/m² 3,2 km/h W-NW 292 ° 0 min 0 W/m² 12,8 °C 18,1 °C 4,8 km/h
01.09.2026 20:20 18,3 °C 70 % 1019,4 hPa 0,0 l/m² 3,2 km/h W-NW 292 ° 0 min 0 W/m² 12,7 °C 18,3 °C 4,8 km/h
01.09.2026 20:15 18,7 °C 68 % 1019,3 hPa 0,0 l/m² 3,2 km/h W-NW 292 ° 0 min 0 W/m² 12,7 °C 18,7 °C 4,8 km/h
01.09.2026 20:10 18,9 °C 67 % 1019,3 hPa 0,0 l/m² 1,6 km/h W 270 ° 0 min 0 W/m² 12,6 °C 18,9 °C 3,2 km/h
01.09.2026 20:05 19,6 °C 65 % 1019,3 hPa 0,0 l/m² 0,0 km/h W 270 ° 0 min 0 W/m² 12,8 °C 19,6 °C 3,2 km/h
01.09.2026 20:00 19,8 °C 63 % 1019,3 hPa 0,0 l/m² 0,0 km/h W 270 ° 0 min 0 W/m² 12,5 °C 19,8 °C 1,6 km/h
01.09.2026 19:55 19,8 °C 65 % 1019,3 hPa 0,0 l/m² 1,6 km/h W 270 ° 0 min 5 W/m² 13,0 °C 19,8 °C 3,2 km/h
01.09.2026 19:50 20,3 °C 61 % 1019,2 hPa 0,0 l/m² 0,0 km/h W 270 ° 0 min 7 W/m² 12,5 °C 20,3 °C 1,6 km/h
01.09.2026 19:45 20,5 °C 60 % 1019,2 hPa 0,0 l/m² 0,0 km/h W 270 ° 0 min 11 W/m² 12,5 °C 20,5 °C 1,6 km/h
01.09.2026 19:40 20,7 °C 61 % 1019,1 hPa 0,0 l/m² 0,0 km/h W 270 ° 5 min 14 W/m² 12,9 °C 20,7 °C 3,2 km/h
01.09.2026 19:35 20,8 °C 61 % 1019,1 hPa 0,0 l/m² 0,0 km/h W 270 ° 0 min 21 W/m² 13,0 °C 20,8 °C 1,6 km/h
01.09.2026 19:30 21,0 °C 60 % 1019,3 hPa 0,0 l/m² 1,6 km/h W 270 ° 0 min 26 W/m² 12,9 °C 21,0 °C 4,8 km/h
01.09.2026 19:25 21,2 °C 59 % 1019,2 hPa 0,0 l/m² 3,2 km/h W 270 ° 0 min 26 W/m² 12,9 °C 21,2 °C 4,8 km/h
01.09.2026 19:20 21,3 °C 58 % 1019,1 hPa 0,0 l/m² 3,2 km/h W 270 ° 0 min 35 W/m² 12,7 °C 21,3 °C 9,7 km/h
01.09.2026 19:15 21,3 °C 58 % 1019,3 hPa 0,0 l/m² 1,6 km/h W 270 ° 0 min 39 W/m² 12,7 °C 21,3 °C 3,2 km/h
01.09.2026 19:10 21,4 °C 58 % 1019,2 hPa 0,0 l/m² 1,6 km/h W 270 ° 0 min 32 W/m² 12,8 °C 21,4 °C 3,2 km/h
01.09.2026 19:05 21,6 °C 57 % 1019,2 hPa 0,0 l/m² 0,0 km/h W 270 ° 0 min 39 W/m² 12,7 °C 21,6 °C 1,6 km/h
01.09.2026 19:00 21,6 °C 57 % 1019,3 hPa 0,0 l/m² 3,2 km/h W 270 ° 0 min 44 W/m² 12,7 °C 21,6 °C 4,8 km/h
01.09.2026 18:55 21,7 °C 57 % 1019,2 hPa 0,0 l/m² 1,6 km/h W 270 ° 0 min 47 W/m² 12,8 °C 21,7 °C 3,2 km/h
01.09.2026 18:50 21,8 °C 57 % 1019,2 hPa 0,0 l/m² 3,2 km/h W 270 ° 0 min 60 W/m² 12,9 °C 21,8 °C 4,8 km/h
01.09.2026 18:45 21,7 °C 57 % 1019,2 hPa 0,0 l/m² 1,6 km/h W 270 ° 0 min 62 W/m² 12,8 °C 21,7 °C 4,8 km/h
01.09.2026 18:40 21,7 °C 56 % 1019,2 hPa 0,0 l/m² 1,6 km/h W 270 ° 0 min 69 W/m² 12,5 °C 21,7 °C 4,8 km/h
01.09.2026 18:35 21,8 °C 56 % 1019,2 hPa 0,0 l/m² 3,2 km/h W 270 ° 0 min 60 W/m² 12,6 °C 21,8 °C 9,7 km/h
01.09.2026 18:30 21,9 °C 55 % 1019,0 hPa 0,0 l/m² 4,8 km/h W 270 ° 0 min 84 W/m² 12,4 °C 21,9 °C 11,3 km/h
01.09.2026 18:25 22,3 °C 54 % 1019,1 hPa 0,0 l/m² 6,4 km/h W 270 ° 0 min 70 W/m² 12,5 °C 22,3 °C 12,9 km/h
01.09.2026 18:20 22,7 °C 54 % 1019,1 hPa 0,0 l/m² 4,8 km/h W-SW 247 ° 0 min 118 W/m² 12,9 °C 22,7 °C 11,3 km/h
01.09.2026 18:15 22,8 °C 54 % 1019,2 hPa 0,0 l/m² 4,8 km/h W 270 ° 0 min 116 W/m² 13,0 °C 22,8 °C 11,3 km/h
01.09.2026 18:10 23,1 °C 53 % 1019,2 hPa 0,0 l/m² 4,8 km/h W-NW 292 ° 0 min 95 W/m² 13,0 °C 23,1 °C 11,3 km/h
01.09.2026 18:05 23,7 °C 52 % 1019,2 hPa 0,0 l/m² 4,8 km/h W 270 ° 0 min 116 W/m² 13,2 °C 23,7 °C 6,4 km/h
01.09.2026 18:00 23,5 °C 54 % 1019,1 hPa 0,0 l/m² 4,8 km/h W 270 ° 0 min 146 W/m² 13,6 °C 23,5 °C 11,3 km/h
01.09.2026 17:55 23,7 °C 52 % 1019,2 hPa 0,0 l/m² 4,8 km/h W-SW 247 ° 0 min 193 W/m² 13,2 °C 23,7 °C 11,3 km/h
01.09.2026 17:50 23,7 °C 54 % 1019,2 hPa 0,0 l/m² 6,4 km/h W-SW 247 ° 5 min 237 W/m² 13,8 °C 23,7 °C 12,9 km/h
01.09.2026 17:45 23,7 °C 52 % 1019,2 hPa 0,0 l/m² 8,0 km/h W-NW 292 ° 5 min 279 W/m² 13,2 °C 23,2 °C 14,5 km/h
01.09.2026 17:40 23,6 °C 52 % 1019,2 hPa 0,0 l/m² 8,0 km/h W-SW 247 ° 5 min 316 W/m² 13,2 °C 23,1 °C 16,1 km/h
01.09.2026 17:35 23,8 °C 51 % 1019,2 hPa 0,0 l/m² 3,2 km/h W 270 ° 5 min 334 W/m² 13,0 °C 23,8 °C 8,0 km/h
01.09.2026 17:30 23,8 °C 52 % 1019,1 hPa 0,0 l/m² 6,4 km/h W-NW 292 ° 5 min 357 W/m² 13,3 °C 23,8 °C 12,9 km/h
01.09.2026 17:25 23,6 °C 52 % 1019,2 hPa 0,0 l/m² 8,0 km/h W 270 ° 5 min 360 W/m² 13,2 °C 23,1 °C 14,5 km/h
01.09.2026 17:20 23,4 °C 52 % 1019,1 hPa 0,0 l/m² 4,8 km/h W 270 ° 5 min 362 W/m² 13,0 °C 23,4 °C 11,3 km/h
01.09.2026 17:15 23,6 °C 52 % 1019,1 hPa 0,0 l/m² 4,8 km/h W-SW 247 ° 5 min 392 W/m² 13,2 °C 23,6 °C 12,9 km/h
01.09.2026 17:10 23,7 °C 52 % 1019,2 hPa 0,0 l/m² 8,0 km/h S 180 ° 5 min 420 W/m² 13,2 °C 23,2 °C 16,1 km/h
01.09.2026 17:05 24,6 °C 51 % 1019,2 hPa 0,0 l/m² 4,8 km/h W 270 ° 5 min 434 W/m² 13,8 °C 24,6 °C 9,7 km/h
01.09.2026 17:00 23,9 °C 52 % 1019,3 hPa 0,0 l/m² 8,0 km/h W 270 ° 5 min 424 W/m² 13,4 °C 23,4 °C 17,7 km/h
01.09.2026 16:55 23,8 °C 53 % 1019,2 hPa 0,0 l/m² 6,4 km/h W 270 ° 5 min 434 W/m² 13,6 °C 23,8 °C 16,1 km/h
01.09.2026 16:50 24,1 °C 52 % 1019,2 hPa 0,0 l/m² 8,0 km/h W 270 ° 5 min 452 W/m² 13,6 °C 23,7 °C 12,9 km/h
01.09.2026 16:45 24,3 °C 51 % 1019,2 hPa 0,0 l/m² 8,0 km/h W 270 ° 5 min 464 W/m² 13,5 °C 23,9 °C 17,7 km/h
01.09.2026 16:40 24,3 °C 51 % 1019,2 hPa 0,0 l/m² 6,4 km/h W-NW 292 ° 5 min 475 W/m² 13,5 °C 24,3 °C 12,9 km/h
01.09.2026 16:35 24,2 °C 51 % 1019,1 hPa 0,0 l/m² 8,0 km/h W 270 ° 5 min 490 W/m² 13,4 °C 23,8 °C 14,5 km/h
01.09.2026 16:30 24,3 °C 52 % 1019,2 hPa 0,0 l/m² 9,7 km/h S 180 ° 5 min 519 W/m² 13,8 °C 23,5 °C 20,9 km/h
01.09.2026 16:25 24,3 °C 52 % 1019,2 hPa 0,0 l/m² 4,8 km/h W 270 ° 5 min 526 W/m² 13,8 °C 24,3 °C 11,3 km/h
01.09.2026 16:20 24,3 °C 50 % 1019,3 hPa 0,0 l/m² 8,0 km/h SW 225 ° 5 min 543 W/m² 13,2 °C 23,9 °C 14,5 km/h
01.09.2026 16:15 24,8 °C 53 % 1019,4 hPa 0,0 l/m² 4,8 km/h S 180 ° 5 min 575 W/m² 14,6 °C 24,8 °C 14,5 km/h
01.09.2026 16:10 24,2 °C 51 % 1019,4 hPa 0,0 l/m² 6,4 km/h W 270 ° 5 min 584 W/m² 13,4 °C 24,2 °C 14,5 km/h
01.09.2026 16:05 24,2 °C 52 % 1019,5 hPa 0,0 l/m² 6,4 km/h NW 315 ° 5 min 587 W/m² 13,7 °C 24,2 °C 17,7 km/h
01.09.2026 16:00 23,4 °C 55 % 1019,7 hPa 0,0 l/m² 3,2 km/h S-SW 202 ° 5 min 652 W/m² 13,8 °C 23,4 °C 8,0 km/h
01.09.2026 15:55 22,9 °C 55 % 1019,6 hPa 0,0 l/m² 6,4 km/h SW 225 ° 0 min 218 W/m² 13,4 °C 22,9 °C 12,9 km/h
01.09.2026 15:50 23,7 °C 52 % 1019,5 hPa 0,0 l/m² 12,9 km/h W-NW 292 ° 5 min 610 W/m² 13,2 °C 22,1 °C 22,5 km/h
01.09.2026 15:45 23,8 °C 53 % 1019,6 hPa 0,0 l/m² 9,7 km/h W 270 ° 5 min 621 W/m² 13,6 °C 22,9 °C 16,1 km/h
01.09.2026 15:40 23,4 °C 54 % 1019,5 hPa 0,0 l/m² 6,4 km/h W-SW 247 ° 5 min 622 W/m² 13,6 °C 23,4 °C 16,1 km/h
01.09.2026 15:35 23,3 °C 52 % 1019,7 hPa 0,0 l/m² 6,4 km/h SW 225 ° 5 min 668 W/m² 12,9 °C 23,3 °C 11,3 km/h
01.09.2026 15:30 23,9 °C 52 % 1019,7 hPa 0,0 l/m² 9,7 km/h SW 225 ° 5 min 666 W/m² 13,4 °C 23,0 °C 17,7 km/h
01.09.2026 15:25 24,2 °C 54 % 1019,8 hPa 0,0 l/m² 4,8 km/h SW 225 ° 5 min 663 W/m² 14,3 °C 24,2 °C 9,7 km/h
01.09.2026 15:20 24,2 °C 52 % 1019,8 hPa 0,0 l/m² 3,2 km/h S-SW 202 ° 5 min 696 W/m² 13,7 °C 24,2 °C 8,0 km/h
01.09.2026 15:15 22,9 °C 58 % 1019,9 hPa 0,0 l/m² 4,8 km/h W-NW 292 ° 5 min 714 W/m² 14,2 °C 22,9 °C 11,3 km/h
01.09.2026 15:10 22,9 °C 55 % 1020,0 hPa 0,0 l/m² 6,4 km/h W-NW 292 ° 0 min 213 W/m² 13,4 °C 22,9 °C 14,5 km/h
01.09.2026 15:05 24,4 °C 53 % 1020,0 hPa 0,0 l/m² 6,4 km/h W-NW 292 ° 5 min 770 W/m² 14,2 °C 24,4 °C 14,5 km/h
01.09.2026 15:00 24,3 °C 53 % 1020,0 hPa 0,0 l/m² 4,8 km/h W-SW 247 ° 5 min 798 W/m² 14,1 °C 24,3 °C 11,3 km/h
01.09.2026 14:55 23,7 °C 54 % 1020,0 hPa 0,0 l/m² 4,8 km/h S 180 ° 5 min 784 W/m² 13,8 °C 23,7 °C 12,9 km/h
01.09.2026 14:50 22,4 °C 56 % 1020,1 hPa 0,0 l/m² 3,2 km/h W-SW 247 ° 5 min 701 W/m² 13,2 °C 22,4 °C 12,9 km/h
01.09.2026 14:45 22,2 °C 56 % 1020,1 hPa 0,0 l/m² 11,3 km/h W-NW 292 ° 0 min 243 W/m² 13,0 °C 20,7 °C 16,1 km/h
01.09.2026 14:40 22,7 °C 55 % 1020,1 hPa 0,0 l/m² 8,0 km/h NW 315 ° 0 min 200 W/m² 13,2 °C 22,2 °C 16,1 km/h
01.09.2026 14:35 23,5 °C 53 % 1020,1 hPa 0,0 l/m² 8,0 km/h W 270 ° 5 min 819 W/m² 13,4 °C 23,0 °C 17,7 km/h
01.09.2026 14:30 23,7 °C 52 % 1020,2 hPa 0,0 l/m² 9,7 km/h W-NW 292 ° 5 min 884 W/m² 13,2 °C 22,8 °C 14,5 km/h
01.09.2026 14:25 23,6 °C 53 % 1020,3 hPa 0,0 l/m² 12,9 km/h W-NW 292 ° 5 min 877 W/m² 13,4 °C 22,0 °C 27,4 km/h
01.09.2026 14:20 23,4 °C 54 % 1020,1 hPa 0,0 l/m² 8,0 km/h S-SW 202 ° 5 min 925 W/m² 13,6 °C 22,9 °C 17,7 km/h
01.09.2026 14:15 23,4 °C 54 % 1020,3 hPa 0,0 l/m² 4,8 km/h W-SW 247 ° 5 min 837 W/m² 13,6 °C 23,4 °C 14,5 km/h
01.09.2026 14:10 23,9 °C 53 % 1020,2 hPa 0,0 l/m² 4,8 km/h W 270 ° 5 min 912 W/m² 13,7 °C 23,9 °C 12,9 km/h
01.09.2026 14:05 22,7 °C 58 % 1020,2 hPa 0,0 l/m² 8,0 km/h W-SW 247 ° 5 min 874 W/m² 14,0 °C 22,2 °C 27,4 km/h
01.09.2026 14:00 22,5 °C 56 % 1020,3 hPa 0,0 l/m² 8,0 km/h W-SW 247 ° 5 min 923 W/m² 13,3 °C 22,0 °C 22,5 km/h
01.09.2026 13:55 22,1 °C 57 % 1020,4 hPa 0,0 l/m² 6,4 km/h SW 225 ° 0 min 246 W/m² 13,2 °C 22,1 °C 16,1 km/h
01.09.2026 13:50 22,1 °C 58 % 1020,3 hPa 0,0 l/m² 4,8 km/h W 270 ° 0 min 243 W/m² 13,4 °C 22,1 °C 19,3 km/h
01.09.2026 13:45 22,0 °C 57 % 1020,3 hPa 0,0 l/m² 4,8 km/h W-NW 292 ° 0 min 248 W/m² 13,1 °C 22,0 °C 12,9 km/h
01.09.2026 13:40 22,4 °C 58 % 1020,3 hPa 0,0 l/m² 6,4 km/h NW 315 ° 0 min 329 W/m² 13,7 °C 22,4 °C 19,3 km/h
01.09.2026 13:35 23,5 °C 55 % 1020,4 hPa 0,0 l/m² 4,8 km/h O 90 ° 5 min 867 W/m² 13,9 °C 23,5 °C 16,1 km/h
01.09.2026 13:30 23,2 °C 59 % 1020,5 hPa 0,0 l/m² 6,4 km/h S 180 ° 5 min 947 W/m² 14,7 °C 23,2 °C 16,1 km/h
01.09.2026 13:25 23,4 °C 56 % 1020,4 hPa 0,0 l/m² 8,0 km/h S-SW 202 ° 5 min 881 W/m² 14,1 °C 22,9 °C 17,7 km/h
01.09.2026 13:20 23,3 °C 57 % 1020,4 hPa 0,0 l/m² 8,0 km/h W-NW 292 ° 5 min 895 W/m² 14,3 °C 22,8 °C 14,5 km/h
01.09.2026 13:15 22,6 °C 57 % 1020,4 hPa 0,0 l/m² 9,7 km/h S-SW 202 ° 5 min 940 W/m² 13,6 °C 21,6 °C 24,1 km/h
01.09.2026 13:10 22,3 °C 58 % 1020,6 hPa 0,0 l/m² 8,0 km/h S-SW 202 ° 5 min 645 W/m² 13,6 °C 21,8 °C 16,1 km/h
01.09.2026 13:05 22,7 °C 59 % 1020,5 hPa 0,0 l/m² 6,4 km/h W-SW 247 ° 5 min 837 W/m² 14,3 °C 22,7 °C 17,7 km/h
01.09.2026 13:00 23,3 °C 55 % 1020,6 hPa 0,0 l/m² 4,8 km/h SW 225 ° 5 min 907 W/m² 13,7 °C 23,3 °C 20,9 km/h
01.09.2026 12:55 22,6 °C 60 % 1020,6 hPa 0,0 l/m² 8,0 km/h W-SW 247 ° 5 min 881 W/m² 14,4 °C 22,1 °C 14,5 km/h
01.09.2026 12:50 22,4 °C 59 % 1020,5 hPa 0,0 l/m² 4,8 km/h S 180 ° 0 min 241 W/m² 14,0 °C 22,4 °C 12,9 km/h
01.09.2026 12:45 22,7 °C 57 % 1020,6 hPa 0,0 l/m² 6,4 km/h W 270 ° 5 min 882 W/m² 13,7 °C 22,7 °C 14,5 km/h
01.09.2026 12:40 22,7 °C 58 % 1020,6 hPa 0,0 l/m² 11,3 km/h W 270 ° 5 min 872 W/m² 14,0 °C 21,3 °C 22,5 km/h
01.09.2026 12:35 22,7 °C 59 % 1020,5 hPa 0,0 l/m² 8,0 km/h W 270 ° 5 min 891 W/m² 14,3 °C 22,2 °C 17,7 km/h
01.09.2026 12:30 22,1 °C 58 % 1020,6 hPa 0,0 l/m² 8,0 km/h W 270 ° 5 min 872 W/m² 13,4 °C 21,6 °C 29,0 km/h
01.09.2026 12:25 22,6 °C 58 % 1020,5 hPa 0,0 l/m² 6,4 km/h NW 315 ° 5 min 807 W/m² 13,9 °C 22,6 °C 19,3 km/h
01.09.2026 12:20 22,2 °C 59 % 1020,5 hPa 0,0 l/m² 6,4 km/h W 270 ° 5 min 796 W/m² 13,8 °C 22,2 °C 14,5 km/h
01.09.2026 12:15 21,9 °C 59 % 1020,7 hPa 0,0 l/m² 6,4 km/h W-SW 247 ° 5 min 731 W/m² 13,5 °C 21,9 °C 14,5 km/h
01.09.2026 12:10 21,8 °C 62 % 1020,6 hPa 0,0 l/m² 6,4 km/h W-SW 247 ° 5 min 807 W/m² 14,2 °C 21,8 °C 14,5 km/h
01.09.2026 12:05 21,7 °C 65 % 1020,7 hPa 0,0 l/m² 6,4 km/h S 180 ° 5 min 782 W/m² 14,8 °C 21,7 °C 14,5 km/h
01.09.2026 12:00 21,5 °C 61 % 1020,7 hPa 0,0 l/m² 6,4 km/h SW 225 ° 5 min 749 W/m² 13,7 °C 21,5 °C 14,5 km/h
01.09.2026 11:55 21,3 °C 62 % 1020,7 hPa 0,0 l/m² 8,0 km/h W-NW 292 ° 5 min 742 W/m² 13,7 °C 20,7 °C 30,6 km/h
01.09.2026 11:50 21,2 °C 64 % 1020,8 hPa 0,0 l/m² 9,7 km/h S-SW 202 ° 5 min 740 W/m² 14,1 °C 20,1 °C 19,3 km/h
01.09.2026 11:45 21,6 °C 64 % 1020,8 hPa 0,0 l/m² 11,3 km/h W 270 ° 5 min 719 W/m² 14,5 °C 20,1 °C 19,3 km/h
01.09.2026 11:40 21,5 °C 65 % 1020,7 hPa 0,0 l/m² 9,7 km/h NW 315 ° 5 min 780 W/m² 14,6 °C 20,4 °C 19,3 km/h
01.09.2026 11:35 21,1 °C 66 % 1020,8 hPa 0,0 l/m² 6,4 km/h W 270 ° 5 min 772 W/m² 14,5 °C 21,1 °C 19,3 km/h
01.09.2026 11:30 21,3 °C 65 % 1020,8 hPa 0,0 l/m² 9,7 km/h W-NW 292 ° 5 min 759 W/m² 14,4 °C 20,2 °C 20,9 km/h
01.09.2026 11:25 21,2 °C 66 % 1020,8 hPa 0,0 l/m² 6,4 km/h O-NO 67 ° 5 min 729 W/m² 14,6 °C 21,2 °C 19,3 km/h
01.09.2026 11:20 20,9 °C 67 % 1020,9 hPa 0,0 l/m² 8,0 km/h W-NW 292 ° 5 min 721 W/m² 14,5 °C 20,3 °C 17,7 km/h
01.09.2026 11:15 20,6 °C 68 % 1020,8 hPa 0,0 l/m² 11,3 km/h W-NW 292 ° 5 min 654 W/m² 14,5 °C 18,9 °C 17,7 km/h
01.09.2026 11:10 20,2 °C 71 % 1020,9 hPa 0,0 l/m² 8,0 km/h W-SW 247 ° 5 min 687 W/m² 14,8 °C 19,6 °C 17,7 km/h
01.09.2026 11:05 20,2 °C 69 % 1021,0 hPa 0,0 l/m² 8,0 km/h W 270 ° 5 min 682 W/m² 14,3 °C 19,6 °C 19,3 km/h
01.09.2026 11:00 20,2 °C 68 % 1020,9 hPa 0,0 l/m² 6,4 km/h N-NO 22 ° 5 min 664 W/m² 14,1 °C 20,2 °C 19,3 km/h
01.09.2026 10:55 20,4 °C 69 % 1021,0 hPa 0,0 l/m² 8,0 km/h W-SW 247 ° 5 min 652 W/m² 14,5 °C 19,8 °C 16,1 km/h
01.09.2026 10:50 20,0 °C 73 % 1021,0 hPa 0,0 l/m² 8,0 km/h W-SW 247 ° 5 min 635 W/m² 15,0 °C 19,4 °C 17,7 km/h
01.09.2026 10:45 19,7 °C 72 % 1021,0 hPa 0,0 l/m² 8,0 km/h S-SW 202 ° 5 min 610 W/m² 14,5 °C 19,0 °C 14,5 km/h
01.09.2026 10:40 19,7 °C 73 % 1021,0 hPa 0,0 l/m² 8,0 km/h W 270 ° 5 min 622 W/m² 14,7 °C 19,0 °C 17,7 km/h
01.09.2026 10:35 19,4 °C 75 % 1021,0 hPa 0,0 l/m² 3,2 km/h S-SW 202 ° 5 min 619 W/m² 14,8 °C 19,4 °C 8,0 km/h
01.09.2026 10:30 19,3 °C 75 % 1020,9 hPa 0,0 l/m² 6,4 km/h W-SW 247 ° 5 min 628 W/m² 14,8 °C 19,3 °C 16,1 km/h
01.09.2026 10:25 18,8 °C 77 % 1020,9 hPa 0,0 l/m² 11,3 km/h S-SW 202 ° 5 min 640 W/m² 14,7 °C 16,9 °C 17,7 km/h
01.09.2026 10:20 18,7 °C 77 % 1020,9 hPa 0,0 l/m² 11,3 km/h S-SW 202 ° 5 min 615 W/m² 14,6 °C 16,8 °C 16,1 km/h
01.09.2026 10:15 18,8 °C 76 % 1020,9 hPa 0,0 l/m² 4,8 km/h W-SW 247 ° 5 min 608 W/m² 14,5 °C 18,8 °C 11,3 km/h
01.09.2026 10:10 18,8 °C 77 % 1020,8 hPa 0,0 l/m² 3,2 km/h W-SW 247 ° 5 min 578 W/m² 14,7 °C 18,8 °C 6,4 km/h
01.09.2026 10:05 18,3 °C 81 % 1020,8 hPa 0,0 l/m² 6,4 km/h S-SW 202 ° 5 min 570 W/m² 15,0 °C 18,3 °C 14,5 km/h
01.09.2026 10:00 18,3 °C 79 % 1020,7 hPa 0,0 l/m² 8,0 km/h S-SW 202 ° 5 min 503 W/m² 14,6 °C 17,6 °C 14,5 km/h
01.09.2026 09:55 18,7 °C 79 % 1020,5 hPa 0,0 l/m² 4,8 km/h SW 225 ° 5 min 534 W/m² 15,0 °C 18,7 °C 14,5 km/h
01.09.2026 09:50 18,7 °C 80 % 1020,5 hPa 0,0 l/m² 4,8 km/h S 180 ° 5 min 512 W/m² 15,2 °C 18,7 °C 8,0 km/h
01.09.2026 09:45 18,2 °C 81 % 1020,6 hPa 0,0 l/m² 3,2 km/h SW 225 ° 5 min 503 W/m² 14,9 °C 18,2 °C 8,0 km/h
01.09.2026 09:40 17,9 °C 80 % 1020,6 hPa 0,0 l/m² 4,8 km/h W-SW 247 ° 5 min 476 W/m² 14,4 °C 17,9 °C 12,9 km/h
01.09.2026 09:35 17,7 °C 84 % 1020,6 hPa 0,0 l/m² 3,2 km/h S-SW 202 ° 5 min 443 W/m² 15,0 °C 17,7 °C 11,3 km/h
01.09.2026 09:30 17,5 °C 85 % 1020,6 hPa 0,0 l/m² 3,2 km/h S-SW 202 ° 5 min 454 W/m² 14,9 °C 17,5 °C 9,7 km/h
01.09.2026 09:25 17,1 °C 84 % 1020,6 hPa 0,0 l/m² 4,8 km/h S 180 ° 5 min 448 W/m² 14,4 °C 17,1 °C 9,7 km/h
01.09.2026 09:20 16,9 °C 84 % 1020,7 hPa 0,0 l/m² 4,8 km/h W-SW 247 ° 5 min 403 W/m² 14,2 °C 16,9 °C 8,0 km/h
01.09.2026 09:15 16,8 °C 86 % 1020,7 hPa 0,0 l/m² 4,8 km/h S-SW 202 ° 5 min 376 W/m² 14,4 °C 16,8 °C 8,0 km/h
01.09.2026 09:10 16,6 °C 85 % 1020,6 hPa 0,0 l/m² 6,4 km/h S-SW 202 ° 5 min 353 W/m² 14,1 °C 16,6 °C 11,3 km/h
01.09.2026 09:05 16,5 °C 85 % 1020,6 hPa 0,0 l/m² 4,8 km/h S-SW 202 ° 5 min 339 W/m² 14,0 °C 16,5 °C 9,7 km/h
01.09.2026 09:00 16,6 °C 86 % 1020,5 hPa 0,0 l/m² 3,2 km/h SW 225 ° 5 min 315 W/m² 14,2 °C 16,6 °C 6,4 km/h
01.09.2026 08:55 16,5 °C 86 % 1020,4 hPa 0,0 l/m² 1,6 km/h S 180 ° 5 min 323 W/m² 14,1 °C 16,5 °C 8,0 km/h
01.09.2026 08:50 16,2 °C 87 % 1020,4 hPa 0,0 l/m² 1,6 km/h S-SO 157 ° 5 min 329 W/m² 14,0 °C 16,2 °C 8,0 km/h
01.09.2026 08:45 15,8 °C 90 % 1020,5 hPa 0,0 l/m² 0,0 km/h SO 135 ° 5 min 315 W/m² 14,2 °C 15,8 °C 6,4 km/h
01.09.2026 08:40 15,6 °C 91 % 1020,5 hPa 0,0 l/m² 1,6 km/h O-SO 112 ° 5 min 246 W/m² 14,1 °C 15,6 °C 4,8 km/h
01.09.2026 08:35 15,4 °C 92 % 1020,5 hPa 0,0 l/m² 0,0 km/h N 0 ° 5 min 264 W/m² 14,1 °C 15,4 °C 0,0 km/h
01.09.2026 08:30 15,2 °C 92 % 1020,4 hPa 0,0 l/m² 0,0 km/h O-SO 112 ° 0 min 197 W/m² 13,9 °C 15,2 °C 3,2 km/h
01.09.2026 08:25 15,0 °C 93 % 1020,4 hPa 0,0 l/m² 0,0 km/h O-SO 112 ° 5 min 271 W/m² 13,9 °C 15,0 °C 1,6 km/h
01.09.2026 08:20 14,7 °C 94 % 1020,4 hPa 0,0 l/m² 0,0 km/h N 0 ° 5 min 241 W/m² 13,7 °C 14,7 °C 0,0 km/h
01.09.2026 08:15 14,4 °C 94 % 1020,4 hPa 0,0 l/m² 0,0 km/h NO 45 ° 5 min 248 W/m² 13,4 °C 14,4 °C 1,6 km/h
01.09.2026 08:10 14,1 °C 94 % 1020,4 hPa 0,0 l/m² 0,0 km/h N 0 ° 5 min 244 W/m² 13,1 °C 14,1 °C 0,0 km/h
01.09.2026 08:05 13,8 °C 94 % 1020,3 hPa 0,0 l/m² 0,0 km/h N 0 ° 5 min 236 W/m² 12,9 °C 13,8 °C 0,0 km/h
01.09.2026 08:00 13,5 °C 95 % 1020,2 hPa 0,0 l/m² 0,0 km/h N 0 ° 5 min 185 W/m² 12,7 °C 13,5 °C 0,0 km/h
01.09.2026 07:55 13,3 °C 95 % 1020,2 hPa 0,0 l/m² 0,0 km/h NO 45 ° 0 min 76 W/m² 12,5 °C 13,3 °C 1,6 km/h
01.09.2026 07:50 13,1 °C 95 % 1020,3 hPa 0,0 l/m² 0,0 km/h N 0 ° 0 min 116 W/m² 12,3 °C 13,1 °C 0,0 km/h
01.09.2026 07:45 12,9 °C 95 % 1020,1 hPa 0,0 l/m² 0,0 km/h N-NO 22 ° 5 min 141 W/m² 12,1 °C 12,9 °C 4,8 km/h
01.09.2026 07:40 12,7 °C 95 % 1020,1 hPa 0,0 l/m² 0,0 km/h NO 45 ° 0 min 120 W/m² 11,9 °C 12,7 °C 3,2 km/h
01.09.2026 07:35 12,6 °C 94 % 1020,2 hPa 0,0 l/m² 0,0 km/h NO 45 ° 5 min 123 W/m² 11,7 °C 12,6 °C 1,6 km/h
01.09.2026 07:30 12,5 °C 94 % 1020,2 hPa 0,0 l/m² 0,0 km/h N-NO 22 ° 5 min 109 W/m² 11,6 °C 12,5 °C 3,2 km/h
01.09.2026 07:25 12,4 °C 94 % 1020,1 hPa 0,0 l/m² 0,0 km/h N-NO 22 ° 0 min 91 W/m² 11,5 °C 12,4 °C 4,8 km/h
01.09.2026 07:20 12,4 °C 94 % 1020,1 hPa 0,0 l/m² 0,0 km/h N-NO 22 ° 0 min 67 W/m² 11,5 °C 12,4 °C 3,2 km/h
01.09.2026 07:15 12,3 °C 94 % 1020,3 hPa 0,0 l/m² 0,0 km/h NO 45 ° 0 min 53 W/m² 11,4 °C 12,3 °C 1,6 km/h
01.09.2026 07:10 12,3 °C 93 % 1020,0 hPa 0,0 l/m² 1,6 km/h NO 45 ° 0 min 54 W/m² 11,2 °C 12,3 °C 4,8 km/h
01.09.2026 07:05 12,3 °C 93 % 1020,1 hPa 0,0 l/m² 1,6 km/h N-NO 22 ° 0 min 47 W/m² 11,2 °C 12,3 °C 4,8 km/h
01.09.2026 07:00 12,3 °C 93 % 1020,1 hPa 0,0 l/m² 1,6 km/h N-NO 22 ° 0 min 26 W/m² 11,2 °C 12,3 °C 6,4 km/h
01.09.2026 06:55 12,4 °C 93 % 1020,0 hPa 0,0 l/m² 1,6 km/h N-NO 22 ° 0 min 21 W/m² 11,3 °C 12,4 °C 4,8 km/h
01.09.2026 06:50 12,4 °C 93 % 1020,1 hPa 0,0 l/m² 1,6 km/h N-NO 22 ° 0 min 14 W/m² 11,3 °C 12,4 °C 4,8 km/h
01.09.2026 06:45 12,5 °C 93 % 1020,1 hPa 0,0 l/m² 0,0 km/h N-NO 22 ° 0 min 12 W/m² 11,4 °C 12,5 °C 1,6 km/h
01.09.2026 06:40 12,6 °C 93 % 1020,0 hPa 0,0 l/m² 0,0 km/h N-NO 22 ° 0 min 11 W/m² 11,5 °C 12,6 °C 3,2 km/h
01.09.2026 06:35 12,6 °C 92 % 1019,9 hPa 0,0 l/m² 1,6 km/h N-NO 22 ° 0 min 7 W/m² 11,3 °C 12,6 °C 4,8 km/h
01.09.2026 06:30 12,7 °C 92 % 1019,9 hPa 0,0 l/m² 1,6 km/h N-NO 22 ° 0 min 5 W/m² 11,4 °C 12,7 °C 4,8 km/h
01.09.2026 06:25 12,7 °C 92 % 1019,8 hPa 0,0 l/m² 1,6 km/h N-NO 22 ° 0 min 0 W/m² 11,4 °C 12,7 °C 6,4 km/h
01.09.2026 06:20 12,8 °C 92 % 1019,8 hPa 0,0 l/m² 1,6 km/h N-NO 22 ° 0 min 0 W/m² 11,5 °C 12,8 °C 6,4 km/h
01.09.2026 06:15 12,8 °C 92 % 1019,8 hPa 0,0 l/m² 3,2 km/h N-NO 22 ° 0 min 0 W/m² 11,5 °C 12,8 °C 4,8 km/h
01.09.2026 06:10 12,9 °C 92 % 1019,7 hPa 0,0 l/m² 1,6 km/h N-NO 22 ° 0 min 0 W/m² 11,6 °C 12,9 °C 4,8 km/h
01.09.2026 06:05 13,0 °C 92 % 1019,7 hPa 0,0 l/m² 3,2 km/h N-NO 22 ° 0 min 0 W/m² 11,7 °C 13,0 °C 4,8 km/h
01.09.2026 06:00 13,1 °C 91 % 1019,7 hPa 0,0 l/m² 3,2 km/h N-NO 22 ° 0 min 0 W/m² 11,7 °C 13,1 °C 4,8 km/h
_ Min-Zeit 07:00 16:20 18:30 - 06:40 - - - - 05:00 07:00 07:50
Minimum _ 12,3 °C 50 % 1019,0 hPa - 0,0 km/h - - - - 10,7 °C 12,3 °C 0,0 km/h
_ Max-Zeit 16:20 07:40 10:35 06:00 14:25 - - 07:30 13:30 09:50 16:15 11:55
Maximum _ 24,9 °C 95 % 1021,0 hPa 0,0 l/m² 12,9 km/h
W-NW
- - 5 min 947 W/m² 15,2 °C 24,8 °C 30,6 km/h
W
Durchschnitt _ 17,9 °C 74 % 1020,1 hPa #0,0 l/m² 3,7 km/h N-NO - #0 min. 0 W/m² 12,8 °C 17,8 °C 8,3 km/h